sensor_id;sensor_type;location;lat;lon;timestamp;temperature;humidity
75153;HTU21D;63734;45.218;36.708;2023-06-19T00:00:40;21.91;93.82
75153;HTU21D;63734;45.218;36.708;2023-06-19T00:03:07;21.89;94.02
75153;HTU21D;63734;45.218;36.708;2023-06-19T00:05:33;21.85;94.14
75153;HTU21D;63734;45.218;36.708;2023-06-19T00:07:59;21.82;94.71
75153;HTU21D;63734;45.218;36.708;2023-06-19T00:10:25;21.79;94.96
75153;HTU21D;63734;45.218;36.708;2023-06-19T00:12:50;21.78;95.22
75153;HTU21D;63734;45.218;36.708;2023-06-19T00:15:17;21.74;95.21
75153;HTU21D;63734;45.218;36.708;2023-06-19T00:17:42;21.73;95.39
75153;HTU21D;63734;45.218;36.708;2023-06-19T00:20:09;21.74;95.91
75153;HTU21D;63734;45.218;36.708;2023-06-19T00:22:35;21.76;95.88
75153;HTU21D;63734;45.218;36.708;2023-06-19T00:25:01;21.79;95.88
75153;HTU21D;63734;45.218;36.708;2023-06-19T00:27:27;21.85;95.90
75153;HTU21D;63734;45.218;36.708;2023-06-19T00:29:53;21.88;95.69
75153;HTU21D;63734;45.218;36.708;2023-06-19T00:32:19;21.88;95.44
75153;HTU21D;63734;45.218;36.708;2023-06-19T00:34:45;21.89;95.40
75153;HTU21D;63734;45.218;36.708;2023-06-19T00:37:11;21.88;95.23
75153;HTU21D;63734;45.218;36.708;2023-06-19T00:39:39;21.84;95.23
75153;HTU21D;63734;45.218;36.708;2023-06-19T00:42:08;21.82;94.98
75153;HTU21D;63734;45.218;36.708;2023-06-19T00:44:34;21.80;95.21
75153;HTU21D;63734;45.218;36.708;2023-06-19T00:47:02;21.74;95.26
75153;HTU21D;63734;45.218;36.708;2023-06-19T00:49:29;21.69;95.33
75153;HTU21D;63734;45.218;36.708;2023-06-19T00:51:56;21.64;95.33
75153;HTU21D;63734;45.218;36.708;2023-06-19T00:54:22;21.61;95.48
75153;HTU21D;63734;45.218;36.708;2023-06-19T00:56:48;21.61;95.55
75153;HTU21D;63734;45.218;36.708;2023-06-19T00:59:19;21.57;95.76
75153;HTU21D;63734;45.218;36.708;2023-06-19T01:01:46;21.53;95.63
75153;HTU21D;63734;45.218;36.708;2023-06-19T01:04:12;21.48;95.65
75153;HTU21D;63734;45.218;36.708;2023-06-19T01:06:54;21.43;95.71
75153;HTU21D;63734;45.218;36.708;2023-06-19T01:09:51;21.38;95.72
75153;HTU21D;63734;45.218;36.708;2023-06-19T01:12:23;0.00;96.41
75153;HTU21D;63734;45.218;36.708;2023-06-19T01:15:09;21.33;96.39
75153;HTU21D;63734;45.218;36.708;2023-06-19T01:17:35;21.34;97.11
75153;HTU21D;63734;45.218;36.708;2023-06-19T01:20:02;21.33;96.97
75153;HTU21D;63734;45.218;36.708;2023-06-19T01:22:35;21.33;97.26
75153;HTU21D;63734;45.218;36.708;2023-06-19T01:25:04;21.32;97.26
75153;HTU21D;63734;45.218;36.708;2023-06-19T01:27:31;21.33;97.24
75153;HTU21D;63734;45.218;36.708;2023-06-19T01:29:59;21.34;97.29
75153;HTU21D;63734;45.218;36.708;2023-06-19T01:35:01;21.31;96.89
75153;HTU21D;63734;45.218;36.708;2023-06-19T01:37:28;21.29;96.59
75153;HTU21D;63734;45.218;36.708;2023-06-19T01:39:58;21.25;96.18
75153;HTU21D;63734;45.218;36.708;2023-06-19T01:42:26;21.25;95.62
75153;HTU21D;63734;45.218;36.708;2023-06-19T01:44:52;21.25;95.09
75153;HTU21D;63734;45.218;36.708;2023-06-19T01:47:19;21.27;94.54
75153;HTU21D;63734;45.218;36.708;2023-06-19T01:49:46;21.28;94.20
75153;HTU21D;63734;45.218;36.708;2023-06-19T01:52:12;21.28;93.96
75153;HTU21D;63734;45.218;36.708;2023-06-19T01:54:39;21.31;93.71
75153;HTU21D;63734;45.218;36.708;2023-06-19T01:57:05;21.31;93.44
75153;HTU21D;63734;45.218;36.708;2023-06-19T01:59:31;21.29;93.38
75153;HTU21D;63734;45.218;36.708;2023-06-19T02:01:57;21.27;93.24
75153;HTU21D;63734;45.218;36.708;2023-06-19T02:04:23;21.24;93.14
75153;HTU21D;63734;45.218;36.708;2023-06-19T02:06:49;21.22;93.08
75153;HTU21D;63734;45.218;36.708;2023-06-19T02:09:15;21.23;92.94
75153;HTU21D;63734;45.218;36.708;2023-06-19T02:11:41;21.23;92.86
75153;HTU21D;63734;45.218;36.708;2023-06-19T02:14:09;21.24;92.80
75153;HTU21D;63734;45.218;36.708;2023-06-19T02:16:36;21.24;92.79
75153;HTU21D;63734;45.218;36.708;2023-06-19T02:19:02;21.27;92.79
75153;HTU21D;63734;45.218;36.708;2023-06-19T02:21:28;21.27;92.59
75153;HTU21D;63734;45.218;36.708;2023-06-19T02:23:54;21.24;92.34
75153;HTU21D;63734;45.218;36.708;2023-06-19T02:26:20;21.21;92.28
75153;HTU21D;63734;45.218;36.708;2023-06-19T02:28:46;21.19;92.30
75153;HTU21D;63734;45.218;36.708;2023-06-19T02:31:14;21.16;92.24
75153;HTU21D;63734;45.218;36.708;2023-06-19T02:33:40;21.15;92.18
75153;HTU21D;63734;45.218;36.708;2023-06-19T02:36:05;21.13;92.05
75153;HTU21D;63734;45.218;36.708;2023-06-19T02:38:32;21.10;91.85
75153;HTU21D;63734;45.218;36.708;2023-06-19T02:40:58;21.09;91.64
75153;HTU21D;63734;45.218;36.708;2023-06-19T02:43:26;21.10;91.55
75153;HTU21D;63734;45.218;36.708;2023-06-19T02:45:51;21.10;91.26
75153;HTU21D;63734;45.218;36.708;2023-06-19T02:48:17;21.14;90.95
75153;HTU21D;63734;45.218;36.708;2023-06-19T02:50:44;21.17;90.68
75153;HTU21D;63734;45.218;36.708;2023-06-19T02:53:11;21.22;90.43
75153;HTU21D;63734;45.218;36.708;2023-06-19T02:55:37;21.33;89.75
75153;HTU21D;63734;45.218;36.708;2023-06-19T02:58:03;21.49;89.17
75153;HTU21D;63734;45.218;36.708;2023-06-19T03:00:29;21.64;88.53
75153;HTU21D;63734;45.218;36.708;2023-06-19T03:02:56;21.76;87.99
75153;HTU21D;63734;45.218;36.708;2023-06-19T03:05:24;21.75;87.77
75153;HTU21D;63734;45.218;36.708;2023-06-19T03:07:53;21.79;87.93
75153;HTU21D;63734;45.218;36.708;2023-06-19T03:10:18;21.94;87.70
75153;HTU21D;63734;45.218;36.708;2023-06-19T03:12:44;22.09;87.28
75153;HTU21D;63734;45.218;36.708;2023-06-19T03:15:10;22.26;87.06
75153;HTU21D;63734;45.218;36.708;2023-06-19T03:17:40;22.42;86.31
75153;HTU21D;63734;45.218;36.708;2023-06-19T03:20:10;22.53;85.58
75153;HTU21D;63734;45.218;36.708;2023-06-19T03:22:41;22.67;84.92
75153;HTU21D;63734;45.218;36.708;2023-06-19T03:25:10;22.75;84.24
75153;HTU21D;63734;45.218;36.708;2023-06-19T03:27:36;22.78;83.26
75153;HTU21D;63734;45.218;36.708;2023-06-19T03:30:03;22.82;83.23
75153;HTU21D;63734;45.218;36.708;2023-06-19T03:32:38;22.93;82.59
75153;HTU21D;63734;45.218;36.708;2023-06-19T03:35:05;22.97;82.24
75153;HTU21D;63734;45.218;36.708;2023-06-19T03:37:39;22.92;82.26
75153;HTU21D;63734;45.218;36.708;2023-06-19T03:40:06;22.81;82.63
75153;HTU21D;63734;45.218;36.708;2023-06-19T03:42:38;22.71;83.16
75153;HTU21D;63734;45.218;36.708;2023-06-19T03:45:04;22.66;83.65
75153;HTU21D;63734;45.218;36.708;2023-06-19T03:47:31;22.60;83.76
75153;HTU21D;63734;45.218;36.708;2023-06-19T03:49:57;22.55;83.44
75153;HTU21D;63734;45.218;36.708;2023-06-19T03:52:24;22.51;83.28
75153;HTU21D;63734;45.218;36.708;2023-06-19T03:54:50;22.47;83.20
75153;HTU21D;63734;45.218;36.708;2023-06-19T03:57:15;22.43;82.88
75153;HTU21D;63734;45.218;36.708;2023-06-19T03:59:41;22.42;82.79
75153;HTU21D;63734;45.218;36.708;2023-06-19T04:02:09;22.40;82.46
75153;HTU21D;63734;45.218;36.708;2023-06-19T04:04:35;22.39;82.63
75153;HTU21D;63734;45.218;36.708;2023-06-19T04:07:01;22.40;82.56
75153;HTU21D;63734;45.218;36.708;2023-06-19T04:09:28;22.42;82.74
75153;HTU21D;63734;45.218;36.708;2023-06-19T04:11:54;22.43;82.61
75153;HTU21D;63734;45.218;36.708;2023-06-19T04:14:21;22.48;82.62
75153;HTU21D;63734;45.218;36.708;2023-06-19T04:16:49;22.51;82.58
75153;HTU21D;63734;45.218;36.708;2023-06-19T04:19:15;22.55;82.46
75153;HTU21D;63734;45.218;36.708;2023-06-19T04:21:41;22.56;82.41
75153;HTU21D;63734;45.218;36.708;2023-06-19T04:24:07;22.55;82.47
75153;HTU21D;63734;45.218;36.708;2023-06-19T04:26:35;22.56;82.55
75153;HTU21D;63734;45.218;36.708;2023-06-19T04:29:02;22.60;82.67
75153;HTU21D;63734;45.218;36.708;2023-06-19T04:31:29;22.65;82.57
75153;HTU21D;63734;45.218;36.708;2023-06-19T04:33:55;22.69;82.45
75153;HTU21D;63734;45.218;36.708;2023-06-19T04:36:22;22.73;82.46
75153;HTU21D;63734;45.218;36.708;2023-06-19T04:38:48;22.82;82.13
75153;HTU21D;63734;45.218;36.708;2023-06-19T04:41:17;22.85;81.84
75153;HTU21D;63734;45.218;36.708;2023-06-19T04:43:43;22.92;81.75
75153;HTU21D;63734;45.218;36.708;2023-06-19T04:46:09;22.98;81.30
75153;HTU21D;63734;45.218;36.708;2023-06-19T04:48:34;23.05;81.09
75153;HTU21D;63734;45.218;36.708;2023-06-19T04:51:02;23.15;81.01
75153;HTU21D;63734;45.218;36.708;2023-06-19T04:53:28;23.25;80.63
75153;HTU21D;63734;45.218;36.708;2023-06-19T04:55:54;23.35;80.24
75153;HTU21D;63734;45.218;36.708;2023-06-19T04:58:21;23.43;80.13
75153;HTU21D;63734;45.218;36.708;2023-06-19T05:00:48;23.47;78.86
75153;HTU21D;63734;45.218;36.708;2023-06-19T05:03:18;23.45;77.47
75153;HTU21D;63734;45.218;36.708;2023-06-19T05:05:44;23.49;77.71
75153;HTU21D;63734;45.218;36.708;2023-06-19T05:08:10;23.54;77.79
75153;HTU21D;63734;45.218;36.708;2023-06-19T05:10:36;23.61;77.51
75153;HTU21D;63734;45.218;36.708;2023-06-19T05:13:02;23.67;77.66
75153;HTU21D;63734;45.218;36.708;2023-06-19T05:15:28;23.74;77.33
75153;HTU21D;63734;45.218;36.708;2023-06-19T05:17:54;23.80;77.38
75153;HTU21D;63734;45.218;36.708;2023-06-19T05:20:20;23.82;77.53
75153;HTU21D;63734;45.218;36.708;2023-06-19T05:22:46;23.87;77.50
75153;HTU21D;63734;45.218;36.708;2023-06-19T05:25:12;23.92;77.58
75153;HTU21D;63734;45.218;36.708;2023-06-19T05:27:38;23.92;77.37
75153;HTU21D;63734;45.218;36.708;2023-06-19T05:30:04;23.96;77.40
75153;HTU21D;63734;45.218;36.708;2023-06-19T05:32:31;23.96;77.56
75153;HTU21D;63734;45.218;36.708;2023-06-19T05:34:56;24.02;77.63
75153;HTU21D;63734;45.218;36.708;2023-06-19T05:37:22;24.05;77.53
75153;HTU21D;63734;45.218;36.708;2023-06-19T05:39:49;24.09;77.65
75153;HTU21D;63734;45.218;36.708;2023-06-19T05:42:15;24.10;77.60
75153;HTU21D;63734;45.218;36.708;2023-06-19T05:44:40;24.12;77.76
75153;HTU21D;63734;45.218;36.708;2023-06-19T05:47:06;24.10;77.90
75153;HTU21D;63734;45.218;36.708;2023-06-19T05:49:32;24.05;77.85
75153;HTU21D;63734;45.218;36.708;2023-06-19T05:51:58;23.99;77.83
75153;HTU21D;63734;45.218;36.708;2023-06-19T05:54:25;23.96;77.95
75153;HTU21D;63734;45.218;36.708;2023-06-19T05:56:52;23.90;77.96
75153;HTU21D;63734;45.218;36.708;2023-06-19T05:59:18;23.89;77.99
75153;HTU21D;63734;45.218;36.708;2023-06-19T06:01:44;23.90;77.92
75153;HTU21D;63734;45.218;36.708;2023-06-19T06:04:10;23.90;78.14
75153;HTU21D;63734;45.218;36.708;2023-06-19T06:06:36;23.88;78.25
75153;HTU21D;63734;45.218;36.708;2023-06-19T06:09:02;23.87;78.50
75153;HTU21D;63734;45.218;36.708;2023-06-19T06:11:28;23.86;79.01
75153;HTU21D;63734;45.218;36.708;2023-06-19T06:13:54;23.81;79.66
75153;HTU21D;63734;45.218;36.708;2023-06-19T06:16:19;23.79;80.02
75153;HTU21D;63734;45.218;36.708;2023-06-19T06:18:45;23.77;80.13
75153;HTU21D;63734;45.218;36.708;2023-06-19T06:21:11;23.74;79.92
75153;HTU21D;63734;45.218;36.708;2023-06-19T06:23:40;23.73;79.84
75153;HTU21D;63734;45.218;36.708;2023-06-19T06:26:06;23.73;79.73
75153;HTU21D;63734;45.218;36.708;2023-06-19T06:28:32;23.71;79.67
75153;HTU21D;63734;45.218;36.708;2023-06-19T06:30:58;23.71;79.56
75153;HTU21D;63734;45.218;36.708;2023-06-19T06:33:24;23.67;79.61
75153;HTU21D;63734;45.218;36.708;2023-06-19T06:35:50;23.66;79.75
75153;HTU21D;63734;45.218;36.708;2023-06-19T06:38:17;23.68;79.88
75153;HTU21D;63734;45.218;36.708;2023-06-19T06:40:43;23.69;79.96
75153;HTU21D;63734;45.218;36.708;2023-06-19T06:43:09;23.77;79.87
75153;HTU21D;63734;45.218;36.708;2023-06-19T06:45:35;23.79;79.53
75153;HTU21D;63734;45.218;36.708;2023-06-19T06:48:04;23.81;79.49
75153;HTU21D;63734;45.218;36.708;2023-06-19T06:50:30;23.83;79.21
75153;HTU21D;63734;45.218;36.708;2023-06-19T06:52:57;23.89;79.30
75153;HTU21D;63734;45.218;36.708;2023-06-19T06:55:23;23.99;79.21
75153;HTU21D;63734;45.218;36.708;2023-06-19T06:57:49;24.06;79.09
75153;HTU21D;63734;45.218;36.708;2023-06-19T07:00:15;24.17;78.93
75153;HTU21D;63734;45.218;36.708;2023-06-19T07:02:44;24.23;78.85
75153;HTU21D;63734;45.218;36.708;2023-06-19T07:05:12;24.31;78.83
75153;HTU21D;63734;45.218;36.708;2023-06-19T07:07:38;24.40;78.70
75153;HTU21D;63734;45.218;36.708;2023-06-19T07:10:04;24.54;78.34
75153;HTU21D;63734;45.218;36.708;2023-06-19T07:12:30;24.65;78.12
75153;HTU21D;63734;45.218;36.708;2023-06-19T07:14:56;24.79;78.00
75153;HTU21D;63734;45.218;36.708;2023-06-19T07:17:22;24.88;77.60
75153;HTU21D;63734;45.218;36.708;2023-06-19T07:19:48;24.99;77.48
75153;HTU21D;63734;45.218;36.708;2023-06-19T07:22:14;25.05;77.32
75153;HTU21D;63734;45.218;36.708;2023-06-19T07:24:41;25.07;76.71
75153;HTU21D;63734;45.218;36.708;2023-06-19T07:27:07;25.16;76.87
75153;HTU21D;63734;45.218;36.708;2023-06-19T07:29:33;25.37;76.46
75153;HTU21D;63734;45.218;36.708;2023-06-19T07:31:59;25.50;76.18
75153;HTU21D;63734;45.218;36.708;2023-06-19T07:34:28;25.57;75.95
75153;HTU21D;63734;45.218;36.708;2023-06-19T07:36:53;25.65;75.75
75153;HTU21D;63734;45.218;36.708;2023-06-19T07:39:19;25.67;75.66
75153;HTU21D;63734;45.218;36.708;2023-06-19T07:41:45;25.65;75.54
75153;HTU21D;63734;45.218;36.708;2023-06-19T07:44:11;25.61;75.79
75153;HTU21D;63734;45.218;36.708;2023-06-19T07:46:37;25.50;75.72
75153;HTU21D;63734;45.218;36.708;2023-06-19T07:49:03;25.40;75.55
75153;HTU21D;63734;45.218;36.708;2023-06-19T07:51:30;25.31;75.72
75153;HTU21D;63734;45.218;36.708;2023-06-19T07:53:56;25.24;75.82
75153;HTU21D;63734;45.218;36.708;2023-06-19T07:56:22;25.20;75.61
75153;HTU21D;63734;45.218;36.708;2023-06-19T07:58:48;25.14;75.42
75153;HTU21D;63734;45.218;36.708;2023-06-19T08:01:14;25.15;75.41
75153;HTU21D;63734;45.218;36.708;2023-06-19T08:03:41;25.15;75.28
75153;HTU21D;63734;45.218;36.708;2023-06-19T08:06:07;25.18;74.96
75153;HTU21D;63734;45.218;36.708;2023-06-19T08:08:34;25.21;75.00
75153;HTU21D;63734;45.218;36.708;2023-06-19T08:10:59;25.32;74.73
75153;HTU21D;63734;45.218;36.708;2023-06-19T08:13:25;25.52;73.86
75153;HTU21D;63734;45.218;36.708;2023-06-19T08:15:51;25.65;73.01
75153;HTU21D;63734;45.218;36.708;2023-06-19T08:18:17;25.71;72.61
75153;HTU21D;63734;45.218;36.708;2023-06-19T08:20:43;25.71;72.87
75153;HTU21D;63734;45.218;36.708;2023-06-19T08:23:09;25.74;72.24
75153;HTU21D;63734;45.218;36.708;2023-06-19T08:25:35;25.77;72.28
75153;HTU21D;63734;45.218;36.708;2023-06-19T08:28:01;25.77;72.33
75153;HTU21D;63734;45.218;36.708;2023-06-19T08:30:27;25.66;71.94
75153;HTU21D;63734;45.218;36.708;2023-06-19T08:32:53;25.61;72.06
75153;HTU21D;63734;45.218;36.708;2023-06-19T08:35:19;25.46;71.80
75153;HTU21D;63734;45.218;36.708;2023-06-19T08:37:45;25.36;71.95
75153;HTU21D;63734;45.218;36.708;2023-06-19T08:40:12;25.33;72.03
75153;HTU21D;63734;45.218;36.708;2023-06-19T08:42:38;25.31;72.06
75153;HTU21D;63734;45.218;36.708;2023-06-19T08:45:06;25.33;71.88
75153;HTU21D;63734;45.218;36.708;2023-06-19T08:47:33;25.36;71.58
75153;HTU21D;63734;45.218;36.708;2023-06-19T08:49:59;25.35;71.19
75153;HTU21D;63734;45.218;36.708;2023-06-19T08:52:25;25.33;71.52
75153;HTU21D;63734;45.218;36.708;2023-06-19T08:54:51;25.34;71.51
75153;HTU21D;63734;45.218;36.708;2023-06-19T08:57:17;25.36;71.48
75153;HTU21D;63734;45.218;36.708;2023-06-19T08:59:50;25.42;71.10
75153;HTU21D;63734;45.218;36.708;2023-06-19T09:02:16;25.45;70.53
75153;HTU21D;63734;45.218;36.708;2023-06-19T09:04:42;25.50;70.08
75153;HTU21D;63734;45.218;36.708;2023-06-19T09:07:12;25.49;69.81
75153;HTU21D;63734;45.218;36.708;2023-06-19T09:09:47;25.48;69.90
75153;HTU21D;63734;45.218;36.708;2023-06-19T09:12:13;25.57;70.04
75153;HTU21D;63734;45.218;36.708;2023-06-19T09:14:44;25.69;69.85
75153;HTU21D;63734;45.218;36.708;2023-06-19T09:17:12;25.67;69.65
75153;HTU21D;63734;45.218;36.708;2023-06-19T09:19:50;25.72;69.68
75153;HTU21D;63734;45.218;36.708;2023-06-19T09:22:17;25.80;69.49
75153;HTU21D;63734;45.218;36.708;2023-06-19T09:24:47;25.92;68.91
75153;HTU21D;63734;45.218;36.708;2023-06-19T09:27:15;25.95;68.21
75153;HTU21D;63734;45.218;36.708;2023-06-19T09:29:48;26.02;67.89
75153;HTU21D;63734;45.218;36.708;2023-06-19T09:32:23;26.11;67.44
75153;HTU21D;63734;45.218;36.708;2023-06-19T09:34:52;26.18;66.81
75153;HTU21D;63734;45.218;36.708;2023-06-19T09:37:28;26.20;66.68
75153;HTU21D;63734;45.218;36.708;2023-06-19T09:39:57;26.25;65.85
75153;HTU21D;63734;45.218;36.708;2023-06-19T09:44:58;26.66;65.59
75153;HTU21D;63734;45.218;36.708;2023-06-19T09:47:25;26.82;65.04
75153;HTU21D;63734;45.218;36.708;2023-06-19T09:49:56;27.00;65.00
75153;HTU21D;63734;45.218;36.708;2023-06-19T09:52:23;27.19;64.75
75153;HTU21D;63734;45.218;36.708;2023-06-19T09:54:53;27.29;64.31
75153;HTU21D;63734;45.218;36.708;2023-06-19T09:57:20;27.38;62.94
75153;HTU21D;63734;45.218;36.708;2023-06-19T09:59:48;27.51;63.07
75153;HTU21D;63734;45.218;36.708;2023-06-19T10:02:16;27.60;62.44
75153;HTU21D;63734;45.218;36.708;2023-06-19T10:04:51;27.65;62.37
75153;HTU21D;63734;45.218;36.708;2023-06-19T10:07:23;27.70;61.92
75153;HTU21D;63734;45.218;36.708;2023-06-19T10:10:02;27.76;62.30
75153;HTU21D;63734;45.218;36.708;2023-06-19T10:12:46;27.90;59.84
75153;HTU21D;63734;45.218;36.708;2023-06-19T10:15:23;27.99;58.24
75153;HTU21D;63734;45.218;36.708;2023-06-19T10:17:53;27.89;57.83
75153;HTU21D;63734;45.218;36.708;2023-06-19T10:20:27;27.71;58.19
75153;HTU21D;63734;45.218;36.708;2023-06-19T10:25:30;27.83;57.60
75153;HTU21D;63734;45.218;36.708;2023-06-19T10:27:58;27.83;56.32
75153;HTU21D;63734;45.218;36.708;2023-06-19T10:30:24;27.64;54.74
75153;HTU21D;63734;45.218;36.708;2023-06-19T10:32:50;27.52;54.85
75153;HTU21D;63734;45.218;36.708;2023-06-19T10:35:18;27.40;54.75
75153;HTU21D;63734;45.218;36.708;2023-06-19T10:37:47;27.29;54.71
75153;HTU21D;63734;45.218;36.708;2023-06-19T10:40:13;27.32;54.87
75153;HTU21D;63734;45.218;36.708;2023-06-19T10:42:40;27.45;55.52
75153;HTU21D;63734;45.218;36.708;2023-06-19T10:45:08;27.52;53.89
75153;HTU21D;63734;45.218;36.708;2023-06-19T10:47:35;27.51;54.52
75153;HTU21D;63734;45.218;36.708;2023-06-19T10:50:01;27.52;55.08
75153;HTU21D;63734;45.218;36.708;2023-06-19T10:52:28;27.53;54.81
75153;HTU21D;63734;45.218;36.708;2023-06-19T10:54:56;27.51;54.96
75153;HTU21D;63734;45.218;36.708;2023-06-19T10:57:29;27.45;55.98
75153;HTU21D;63734;45.218;36.708;2023-06-19T10:59:56;27.45;55.50
75153;HTU21D;63734;45.218;36.708;2023-06-19T11:02:24;27.46;55.43
75153;HTU21D;63734;45.218;36.708;2023-06-19T11:04:57;27.51;56.04
75153;HTU21D;63734;45.218;36.708;2023-06-19T11:07:23;27.51;56.19
75153;HTU21D;63734;45.218;36.708;2023-06-19T11:09:52;27.59;56.45
75153;HTU21D;63734;45.218;36.708;2023-06-19T11:12:21;27.66;56.51
75153;HTU21D;63734;45.218;36.708;2023-06-19T11:14:48;27.68;56.65
75153;HTU21D;63734;45.218;36.708;2023-06-19T11:17:15;27.67;56.56
75153;HTU21D;63734;45.218;36.708;2023-06-19T11:19:44;27.61;57.01
75153;HTU21D;63734;45.218;36.708;2023-06-19T11:22:10;27.66;56.48
75153;HTU21D;63734;45.218;36.708;2023-06-19T11:24:37;27.69;56.43
75153;HTU21D;63734;45.218;36.708;2023-06-19T11:27:16;27.70;56.53
75153;HTU21D;63734;45.218;36.708;2023-06-19T11:29:42;27.66;56.09
75153;HTU21D;63734;45.218;36.708;2023-06-19T11:32:16;27.59;56.04
75153;HTU21D;63734;45.218;36.708;2023-06-19T11:34:48;27.57;56.18
75153;HTU21D;63734;45.218;36.708;2023-06-19T11:37:15;27.53;56.48
75153;HTU21D;63734;45.218;36.708;2023-06-19T11:39:44;27.58;56.62
75153;HTU21D;63734;45.218;36.708;2023-06-19T11:42:11;27.59;56.44
75153;HTU21D;63734;45.218;36.708;2023-06-19T11:44:56;27.52;56.00
75153;HTU21D;63734;45.218;36.708;2023-06-19T11:47:23;27.31;56.68
75153;HTU21D;63734;45.218;36.708;2023-06-19T11:49:50;27.10;56.91
75153;HTU21D;63734;45.218;36.708;2023-06-19T11:52:16;26.97;57.96
75153;HTU21D;63734;45.218;36.708;2023-06-19T11:54:42;26.97;57.78
75153;HTU21D;63734;45.218;36.708;2023-06-19T11:57:12;27.04;57.33
75153;HTU21D;63734;45.218;36.708;2023-06-19T11:59:41;27.11;57.84
75153;HTU21D;63734;45.218;36.708;2023-06-19T12:02:08;27.12;57.78
75153;HTU21D;63734;45.218;36.708;2023-06-19T12:04:35;27.01;57.35
75153;HTU21D;63734;45.218;36.708;2023-06-19T12:07:01;26.92;57.97
75153;HTU21D;63734;45.218;36.708;2023-06-19T12:09:30;26.86;57.45
75153;HTU21D;63734;45.218;36.708;2023-06-19T12:11:58;26.92;58.00
75153;HTU21D;63734;45.218;36.708;2023-06-19T12:14:24;26.92;57.53
75153;HTU21D;63734;45.218;36.708;2023-06-19T12:16:50;26.86;58.16
75153;HTU21D;63734;45.218;36.708;2023-06-19T12:19:17;26.81;57.78
75153;HTU21D;63734;45.218;36.708;2023-06-19T12:21:43;26.76;57.55
75153;HTU21D;63734;45.218;36.708;2023-06-19T12:24:09;26.72;57.71
75153;HTU21D;63734;45.218;36.708;2023-06-19T12:26:36;26.77;57.58
75153;HTU21D;63734;45.218;36.708;2023-06-19T12:29:03;26.84;56.91
75153;HTU21D;63734;45.218;36.708;2023-06-19T12:31:30;26.85;57.26
75153;HTU21D;63734;45.218;36.708;2023-06-19T12:33:56;26.78;57.48
75153;HTU21D;63734;45.218;36.708;2023-06-19T12:36:22;26.72;57.90
75153;HTU21D;63734;45.218;36.708;2023-06-19T12:38:49;26.76;57.77
75153;HTU21D;63734;45.218;36.708;2023-06-19T12:41:15;26.76;58.25
75153;HTU21D;63734;45.218;36.708;2023-06-19T12:43:41;26.73;58.66
75153;HTU21D;63734;45.218;36.708;2023-06-19T12:46:07;26.79;58.77
75153;HTU21D;63734;45.218;36.708;2023-06-19T12:48:33;26.83;58.45
75153;HTU21D;63734;45.218;36.708;2023-06-19T12:50:59;26.84;58.74
75153;HTU21D;63734;45.218;36.708;2023-06-19T12:53:25;26.89;59.16
75153;HTU21D;63734;45.218;36.708;2023-06-19T12:55:58;26.96;58.74
75153;HTU21D;63734;45.218;36.708;2023-06-19T12:58:24;27.02;58.86
75153;HTU21D;63734;45.218;36.708;2023-06-19T13:00:51;27.01;58.72
75153;HTU21D;63734;45.218;36.708;2023-06-19T13:03:17;27.02;58.99
75153;HTU21D;63734;45.218;36.708;2023-06-19T13:05:45;26.98;59.22
75153;HTU21D;63734;45.218;36.708;2023-06-19T13:08:11;26.99;59.61
75153;HTU21D;63734;45.218;36.708;2023-06-19T13:10:37;27.00;59.83
75153;HTU21D;63734;45.218;36.708;2023-06-19T13:13:04;26.95;60.44
75153;HTU21D;63734;45.218;36.708;2023-06-19T13:15:31;26.93;60.83
75153;HTU21D;63734;45.218;36.708;2023-06-19T13:17:59;26.96;60.93
75153;HTU21D;63734;45.218;36.708;2023-06-19T13:20:25;27.08;61.12
75153;HTU21D;63734;45.218;36.708;2023-06-19T13:22:51;27.14;61.12
75153;HTU21D;63734;45.218;36.708;2023-06-19T13:25:18;27.17;61.05
75153;HTU21D;63734;45.218;36.708;2023-06-19T13:27:45;27.22;60.99
75153;HTU21D;63734;45.218;36.708;2023-06-19T13:30:11;27.20;60.95
75153;HTU21D;63734;45.218;36.708;2023-06-19T13:32:37;27.14;61.18
75153;HTU21D;63734;45.218;36.708;2023-06-19T13:35:06;27.11;61.11
75153;HTU21D;63734;45.218;36.708;2023-06-19T13:37:37;27.09;61.05
75153;HTU21D;63734;45.218;36.708;2023-06-19T13:40:07;27.06;61.15
75153;HTU21D;63734;45.218;36.708;2023-06-19T13:42:33;27.02;61.09
75153;HTU21D;63734;45.218;36.708;2023-06-19T13:45:01;26.98;60.95
75153;HTU21D;63734;45.218;36.708;2023-06-19T13:47:28;26.92;60.83
75153;HTU21D;63734;45.218;36.708;2023-06-19T13:49:54;26.89;60.84
75153;HTU21D;63734;45.218;36.708;2023-06-19T13:52:20;26.90;61.15
75153;HTU21D;63734;45.218;36.708;2023-06-19T13:54:46;26.91;61.15
75153;HTU21D;63734;45.218;36.708;2023-06-19T13:57:12;26.86;60.97
75153;HTU21D;63734;45.218;36.708;2023-06-19T13:59:38;26.85;60.76
75153;HTU21D;63734;45.218;36.708;2023-06-19T14:02:04;26.77;61.11
75153;HTU21D;63734;45.218;36.708;2023-06-19T14:04:30;26.67;61.03
75153;HTU21D;63734;45.218;36.708;2023-06-19T14:06:57;26.62;61.63
75153;HTU21D;63734;45.218;36.708;2023-06-19T14:09:23;26.56;61.93
75153;HTU21D;63734;45.218;36.708;2023-06-19T14:11:49;26.48;62.05
75153;HTU21D;63734;45.218;36.708;2023-06-19T14:14:14;26.42;62.16
75153;HTU21D;63734;45.218;36.708;2023-06-19T14:16:41;26.36;62.27
75153;HTU21D;63734;45.218;36.708;2023-06-19T14:19:07;26.35;62.56
75153;HTU21D;63734;45.218;36.708;2023-06-19T14:21:33;26.27;62.66
75153;HTU21D;63734;45.218;36.708;2023-06-19T14:23:59;26.25;62.21
75153;HTU21D;63734;45.218;36.708;2023-06-19T14:26:25;26.23;62.19
75153;HTU21D;63734;45.218;36.708;2023-06-19T14:28:51;26.23;62.51
75153;HTU21D;63734;45.218;36.708;2023-06-19T14:31:23;26.24;62.26
75153;HTU21D;63734;45.218;36.708;2023-06-19T14:33:49;26.26;61.95
75153;HTU21D;63734;45.218;36.708;2023-06-19T14:36:16;26.26;62.44
75153;HTU21D;63734;45.218;36.708;2023-06-19T14:38:42;26.26;62.44
75153;HTU21D;63734;45.218;36.708;2023-06-19T14:41:07;26.26;62.95
75153;HTU21D;63734;45.218;36.708;2023-06-19T14:43:33;26.28;62.74
75153;HTU21D;63734;45.218;36.708;2023-06-19T14:46:01;26.28;62.57
75153;HTU21D;63734;45.218;36.708;2023-06-19T14:48:29;26.26;62.14
75153;HTU21D;63734;45.218;36.708;2023-06-19T14:50:58;26.25;62.24
75153;HTU21D;63734;45.218;36.708;2023-06-19T14:53:24;26.25;62.24
75153;HTU21D;63734;45.218;36.708;2023-06-19T14:55:50;26.25;62.54
75153;HTU21D;63734;45.218;36.708;2023-06-19T14:58:16;26.24;62.03
75153;HTU21D;63734;45.218;36.708;2023-06-19T15:00:42;26.23;62.37
75153;HTU21D;63734;45.218;36.708;2023-06-19T15:03:08;26.22;62.47
75153;HTU21D;63734;45.218;36.708;2023-06-19T15:05:34;26.20;62.68
75153;HTU21D;63734;45.218;36.708;2023-06-19T15:08:00;26.17;62.81
75153;HTU21D;63734;45.218;36.708;2023-06-19T15:10:27;26.16;62.85